Media — D7SI — position and weather

sailwx.info

Track history (hours):
 
Tides and Currents Weather Stations Pressure Air Temp Water Temp Dewpoint Dewpoint Depression Visibility Wind Speed Wind Dir Waves Ship Positions

Media

Last reported at 2018-Jul-19 21:06 UTC. Time now 2018-Jul-22 08:25 UTC.
Position N 34°58' E 129°08'.

Length 105 m; draft 4.8 m.

Type: Tanker. MMSI: 440691000.

Date/timePositionNaut miles runAvg speedWind from/ knotsBaromVisibWave heightAir tempDewpointWater temp
2018-Jul-19 21:06N 34°58' E 129°08'4 9.5
2018-Jul-19 20:43N 35°00' E 129°11'2 9.3
2018-Jul-19 20:28N 35°02' E 129°12'3 0.1
2018-Jul-18 12:04N 35°04' E 129°16'112.9
2018-Jul-18 12:00N 35°04' E 129°15'42511.8
2018-Jul-17 00:07N 31°01' E 122°19'711.8
2018-Jul-16 23:31N 31°03' E 122°11'714.3
2018-Jul-16 23:00N 31°04' E 122°03'715.0
2018-Jul-16 22:31N 31°08' E 121°55'714.4
2018-Jul-16 22:00N 31°13' E 121°49'7910.5
2018-Jul-16 14:25N 32°00' E 120°34'613.4
2018-Jul-16 13:58N 32°02' E 120°27'  
2018-Jul-13 02:32N 31°09' E 121°53'113.4
2018-Jul-13 02:29N 31°09' E 121°53'612.7
2018-Jul-13 02:00N 31°06' E 121°59'5 9.3
2018-Jul-13 01:30N 31°04' E 122°04'611.8
2018-Jul-13 01:00N 31°03' E 122°11'6 9.9
2018-Jul-13 00:25N 31°03' E 122°18'  
Track history (hours):
 
Tides and Currents Weather Stations Pressure Air Temp Water Temp Dewpoint Dewpoint Depression Visibility Wind Speed Wind Dir Waves Ship Positions

Media

Last reported at 2018-Jul-19 21:06 UTC. Time now 2018-Jul-22 08:25 UTC.
Position N 34°58' E 129°08'.

Length 105 m; draft 4.8 m.

Type: Tanker. MMSI: 440691000.

Date/timePositionNaut miles runAvg speedWind from/ knotsBaromVisibWave heightAir tempDewpointWater temp
2018-Jul-19 21:06N 34°58' E 129°08'4 9.5
2018-Jul-19 20:43N 35°00' E 129°11'2 9.3
2018-Jul-19 20:28N 35°02' E 129°12'3 0.1
2018-Jul-18 12:04N 35°04' E 129°16'112.9
2018-Jul-18 12:00N 35°04' E 129°15'42511.8
2018-Jul-17 00:07N 31°01' E 122°19'711.8
2018-Jul-16 23:31N 31°03' E 122°11'714.3
2018-Jul-16 23:00N 31°04' E 122°03'715.0
2018-Jul-16 22:31N 31°08' E 121°55'714.4
2018-Jul-16 22:00N 31°13' E 121°49'7910.5
2018-Jul-16 14:25N 32°00' E 120°34'613.4
2018-Jul-16 13:58N 32°02' E 120°27'  
2018-Jul-13 02:32N 31°09' E 121°53'113.4
2018-Jul-13 02:29N 31°09' E 121°53'612.7
2018-Jul-13 02:00N 31°06' E 121°59'5 9.3
2018-Jul-13 01:30N 31°04' E 122°04'611.8
2018-Jul-13 01:00N 31°03' E 122°11'6 9.9
2018-Jul-13 00:25N 31°03' E 122°18'  

Dump ship's entire track history